Time;durP1;ratioP1;P1;durP2;ratioP2;P2;SDS_P1;SDS_P2;PMS_P1;PMS_P2;Temp;Humidity;BMP_temperature;BMP_pressure;BME280_temperature;BME280_humidity;BME280_pressure;Samples;Min_cycle;Max_cycle;Signal;HPM_P1;HPM_P2
2021/05/24 00:02:18;;;;;;;2.72;0.80;;;;;;;;;;6919367;28;20109;-79
2021/05/24 00:05:38;;;;;;;1.50;0.80;;;;;;;;;;6917300;28;20037;-79
2021/05/24 00:08:59;;;;;;;4.10;0.80;;;;;;;;;;6921464;28;20033;-80
2021/05/24 00:12:25;;;;;;;1.35;0.82;;;;;;;;;;6921548;28;20112;-80
2021/05/24 00:15:49;;;;;;;1.25;0.80;;;;;;;;;;6920698;28;20034;-80
2021/05/24 00:19:09;;;;;;;5.45;0.90;;;;;;;;;;6919248;28;20033;-80
2021/05/24 00:22:29;;;;;;;0.98;0.80;;;;;;;;;;6919562;28;20065;-80
2021/05/24 00:25:50;;;;;;;0.75;0.70;;;;;;;;;;6920654;28;20476;-80
2021/05/24 00:29:15;;;;;;;2.03;0.70;;;;;;;;;;6920668;28;20030;-80
2021/05/24 00:32:35;;;;;;;2.00;0.75;;;;;;;;;;7002367;23;20049;-84
2021/05/24 00:35:56;;;;;;;2.30;0.75;;;;;;;;;;6947843;28;20383;-83
2021/05/24 00:39:16;;;;;;;0.60;0.60;;;;;;;;;;6947927;28;20172;-83
2021/05/24 00:42:37;;;;;;;0.75;0.60;;;;;;;;;;6933870;28;20029;-83
2021/05/24 00:45:57;;;;;;;0.60;0.60;;;;;;;;;;6945666;28;20029;-83
2021/05/24 00:49:17;;;;;;;0.70;0.70;;;;;;;;;;6947070;28;20041;-84
2021/05/24 00:52:38;;;;;;;8.95;0.80;;;;;;;;;;6947350;28;20041;-84
2021/05/24 00:55:58;;;;;;;2.22;0.73;;;;;;;;;;6947162;28;20057;-83
2021/05/24 00:59:19;;;;;;;3.40;0.60;;;;;;;;;;6946966;28;20061;-84
2021/05/24 01:02:39;;;;;;;0.70;0.70;;;;;;;;;;6937019;28;20037;-84
2021/05/24 01:06:00;;;;;;;0.50;0.50;;;;;;;;;;6946923;28;20364;-83
2021/05/24 01:09:20;;;;;;;1.25;0.60;;;;;;;;;;6946735;28;20025;-84
2021/05/24 01:12:41;;;;;;;0.68;0.68;;;;;;;;;;6939706;28;20391;-84
2021/05/24 01:16:02;;;;;;;1.75;0.90;;;;;;;;;;6941037;28;20155;-83
2021/05/24 01:19:23;;;;;;;1.65;0.70;;;;;;;;;;6947189;28;20057;-84
2021/05/24 01:22:55;;;;;;;0.70;0.70;;;;;;;;;;6942191;28;20036;-84
2021/05/24 01:26:18;;;;;;;0.77;0.77;;;;;;;;;;6941276;28;20052;-83
2021/05/24 01:29:39;;;;;;;0.77;0.70;;;;;;;;;;6946462;28;20100;-84
2021/05/24 01:33:01;;;;;;;0.70;0.60;;;;;;;;;;6947038;28;20030;-84
2021/05/24 01:36:22;;;;;;;0.80;0.80;;;;;;;;;;6940759;28;20120;-84
2021/05/24 01:39:42;;;;;;;2.00;0.70;;;;;;;;;;6938616;28;20029;-84
2021/05/24 01:43:04;;;;;;;1.60;0.80;;;;;;;;;;6932463;28;20041;-84
2021/05/24 01:46:25;;;;;;;2.40;0.75;;;;;;;;;;6945526;28;20036;-84
2021/05/24 01:49:48;;;;;;;4.53;0.70;;;;;;;;;;6945954;28;20025;-86
2021/05/24 01:53:09;;;;;;;0.70;0.70;;;;;;;;;;6945793;28;20037;-86
2021/05/24 01:56:29;;;;;;;0.70;0.70;;;;;;;;;;6945902;28;20100;-86
2021/05/24 01:59:49;;;;;;;0.57;0.52;;;;;;;;;;6946682;28;20025;-86
2021/05/24 02:03:10;;;;;;;1.33;0.70;;;;;;;;;;6944321;28;20525;-83
2021/05/24 02:06:31;;;;;;;4.00;0.70;;;;;;;;;;6945897;28;20035;-86
2021/05/24 02:09:52;;;;;;;1.23;0.82;;;;;;;;;;6945492;28;20036;-87
2021/05/24 02:13:12;;;;;;;5.10;0.73;;;;;;;;;;6945512;28;20025;-85
2021/05/24 02:16:44;;;;;;;2.17;0.80;;;;;;;;;;6944551;28;20061;-84
2021/05/24 02:20:06;;;;;;;0.70;0.70;;;;;;;;;;6944781;28;20076;-85
2021/05/24 02:23:26;;;;;;;0.70;0.70;;;;;;;;;;6945025;28;20025;-85
2021/05/24 02:26:47;;;;;;;0.77;0.73;;;;;;;;;;6943704;28;20036;-85
2021/05/24 02:30:09;;;;;;;1.15;0.77;;;;;;;;;;6944433;28;20183;-85
2021/05/24 02:33:29;;;;;;;9.88;0.82;;;;;;;;;;6944867;28;20080;-83
2021/05/24 02:36:49;;;;;;;10.65;0.90;;;;;;;;;;6944283;28;20080;-83
2021/05/24 02:40:14;;;;;;;3.58;0.57;;;;;;;;;;6944807;28;20442;-82
2021/05/24 02:43:34;;;;;;;9.73;0.80;;;;;;;;;;6943109;28;20431;-81
2021/05/24 02:46:54;;;;;;;9.32;0.75;;;;;;;;;;6943761;28;20470;-82
2021/05/24 02:50:18;;;;;;;4.95;0.80;;;;;;;;;;6944067;28;20066;-82
2021/05/24 02:53:38;;;;;;;8.85;1.00;;;;;;;;;;6943958;28;20108;-82
2021/05/24 02:56:59;;;;;;;6.72;0.80;;;;;;;;;;6938941;28;20041;-82
2021/05/24 03:00:19;;;;;;;1.05;0.70;;;;;;;;;;6943795;28;20052;-84
2021/05/24 03:03:41;;;;;;;5.35;0.90;;;;;;;;;;6944677;28;20065;-83
2021/05/24 03:07:01;;;;;;;0.65;0.50;;;;;;;;;;6953861;28;20029;-82
2021/05/24 03:10:24;;;;;;;1.45;0.75;;;;;;;;;;6942688;28;20025;-83
2021/05/24 03:13:44;;;;;;;1.30;0.55;;;;;;;;;;6943756;28;20037;-83
2021/05/24 03:17:05;;;;;;;7.70;0.95;;;;;;;;;;6943479;28;20037;-83
2021/05/24 03:20:25;;;;;;;2.55;0.80;;;;;;;;;;6942861;28;20124;-84
2021/05/24 03:23:46;;;;;;;1.27;0.70;;;;;;;;;;6942561;28;20105;-86
2021/05/24 03:27:06;;;;;;;3.13;1.10;;;;;;;;;;6943360;28;20036;-84
2021/05/24 03:30:27;;;;;;;1.83;0.70;;;;;;;;;;6943562;28;20613;-82
2021/05/24 03:33:47;;;;;;;2.35;0.70;;;;;;;;;;6937231;28;20025;-83
2021/05/24 03:37:07;;;;;;;0.93;0.80;;;;;;;;;;6943896;28;20033;-83
2021/05/24 03:40:28;;;;;;;1.67;0.70;;;;;;;;;;6943641;28;20041;-83
2021/05/24 03:43:49;;;;;;;1.88;1.08;;;;;;;;;;6943480;28;20022;-83
2021/05/24 03:47:10;;;;;;;0.73;0.63;;;;;;;;;;6943412;28;20036;-83
2021/05/24 03:50:31;;;;;;;3.22;0.90;;;;;;;;;;6943754;28;20021;-84
2021/05/24 03:53:52;;;;;;;1.20;0.75;;;;;;;;;;6944276;28;20025;-84
2021/05/24 03:57:13;;;;;;;1.60;0.63;;;;;;;;;;6942040;28;20087;-84
2021/05/24 04:00:34;;;;;;;1.17;0.90;;;;;;;;;;6942635;28;20064;-84
2021/05/24 04:03:55;;;;;;;0.70;0.70;;;;;;;;;;6942255;28;20467;-83
2021/05/24 04:07:22;;;;;;;4.15;0.70;;;;;;;;;;6942990;28;20057;-82
2021/05/24 04:10:52;;;;;;;2.22;0.60;;;;;;;;;;6931744;28;20038;-84
2021/05/24 04:14:12;;;;;;;1.85;0.80;;;;;;;;;;6937296;28;20042;-84
2021/05/24 04:17:36;;;;;;;2.22;0.70;;;;;;;;;;6928629;28;20100;-84
2021/05/24 04:20:57;;;;;;;0.70;0.70;;;;;;;;;;6943658;28;20080;-83
2021/05/24 04:24:18;;;;;;;3.67;0.63;;;;;;;;;;6946702;28;20372;-84
2021/05/24 04:27:38;;;;;;;4.43;0.80;;;;;;;;;;6947773;28;20491;-85
2021/05/24 04:30:59;;;;;;;2.28;0.50;;;;;;;;;;6945960;28;20042;-84
2021/05/24 04:34:19;;;;;;;0.60;0.60;;;;;;;;;;6945015;28;20030;-83
2021/05/24 04:37:40;;;;;;;3.63;0.93;;;;;;;;;;6946658;28;20053;-84
2021/05/24 04:41:00;;;;;;;1.50;0.80;;;;;;;;;;6945053;28;20033;-83
2021/05/24 04:44:21;;;;;;;4.88;0.80;;;;;;;;;;6947309;28;20120;-84
2021/05/24 04:47:41;;;;;;;1.40;0.70;;;;;;;;;;6947365;28;20025;-83
2021/05/24 04:51:03;;;;;;;1.67;0.77;;;;;;;;;;6948372;28;20061;-84
2021/05/24 04:54:23;;;;;;;1.67;0.63;;;;;;;;;;6937346;28;20045;-83
2021/05/24 04:57:43;;;;;;;3.58;0.82;;;;;;;;;;6940557;28;20069;-84
2021/05/24 05:01:04;;;;;;;0.90;0.70;;;;;;;;;;6947423;28;20029;-83
2021/05/24 05:04:24;;;;;;;0.80;0.60;;;;;;;;;;6932085;28;20029;-83
2021/05/24 05:07:45;;;;;;;0.60;0.60;;;;;;;;;;6946545;28;20087;-85
2021/05/24 05:11:05;;;;;;;1.65;0.75;;;;;;;;;;6947334;28;20022;-84
2021/05/24 05:14:25;;;;;;;0.70;0.70;;;;;;;;;;6946474;28;20045;-87
2021/05/24 05:17:46;;;;;;;3.03;0.80;;;;;;;;;;6947030;28;20026;-83
2021/05/24 05:21:07;;;;;;;0.73;0.60;;;;;;;;;;6946258;28;20041;-85
2021/05/24 05:24:27;;;;;;;0.90;0.68;;;;;;;;;;6943966;28;20037;-92
2021/05/24 05:27:48;;;;;;;1.95;0.70;;;;;;;;;;6944947;28;20033;-86
2021/05/24 05:31:08;;;;;;;1.02;0.60;;;;;;;;;;6944053;28;20049;-86
2021/05/24 05:34:29;;;;;;;0.60;0.60;;;;;;;;;;6946176;28;20076;-86
2021/05/24 05:37:51;;;;;;;2.72;2.53;;;;;;;;;;6946838;28;20029;-86
2021/05/24 05:41:12;;;;;;;6.80;2.30;;;;;;;;;;6944695;28;20033;-86
2021/05/24 05:44:32;;;;;;;2.53;2.42;;;;;;;;;;6945766;28;20064;-85
2021/05/24 05:47:52;;;;;;;8.50;7.97;;;;;;;;;;6935536;28;20037;-84
2021/05/24 05:51:13;;;;;;;7.95;7.18;;;;;;;;;;6926476;28;20034;-81
2021/05/24 05:54:34;;;;;;;7.70;7.07;;;;;;;;;;6931315;28;20385;-82
2021/05/24 05:57:55;;;;;;;3.42;1.13;;;;;;;;;;6940124;28;20033;-81
2021/05/24 06:01:16;;;;;;;2.25;1.30;;;;;;;;;;6931264;28;20038;-82
2021/05/24 06:04:37;;;;;;;2.67;1.42;;;;;;;;;;6924436;28;20113;-81
2021/05/24 06:07:58;;;;;;;2.42;1.50;;;;;;;;;;6918678;28;20026;-80
2021/05/24 06:11:20;;;;;;;3.40;1.50;;;;;;;;;;6929301;28;20391;-80
2021/05/24 06:14:40;;;;;;;1.80;1.25;;;;;;;;;;6927669;28;20121;-81
2021/05/24 06:18:01;;;;;;;1.42;1.10;;;;;;;;;;6928246;28;20037;-81
2021/05/24 06:21:21;;;;;;;1.40;1.30;;;;;;;;;;6933720;28;20113;-83
2021/05/24 06:24:42;;;;;;;1.42;1.33;;;;;;;;;;6928760;28;20025;-81
2021/05/24 06:28:03;;;;;;;5.13;1.30;;;;;;;;;;6927601;28;20037;-81
2021/05/24 06:31:23;;;;;;;1.35;1.25;;;;;;;;;;6933427;28;20427;-80
2021/05/24 06:34:43;;;;;;;1.17;1.13;;;;;;;;;;6932140;28;20628;-81
2021/05/24 06:38:04;;;;;;;1.50;1.23;;;;;;;;;;6929217;28;20041;-80
2021/05/24 06:41:24;;;;;;;1.40;1.10;;;;;;;;;;6940529;28;20072;-79
2021/05/24 06:44:46;;;;;;;1.40;1.30;;;;;;;;;;6941092;28;20104;-82
2021/05/24 06:48:06;;;;;;;1.45;1.30;;;;;;;;;;6928870;28;20025;-81
2021/05/24 06:51:27;;;;;;;1.30;1.17;;;;;;;;;;6927576;28;20029;-81
2021/05/24 06:54:47;;;;;;;4.35;1.20;;;;;;;;;;6943654;28;20430;-81
2021/05/24 06:58:08;;;;;;;4.47;1.60;;;;;;;;;;6935330;28;20430;-82
2021/05/24 07:01:29;;;;;;;1.30;1.20;;;;;;;;;;6926607;28;20037;-81
2021/05/24 07:04:50;;;;;;;1.25;1.15;;;;;;;;;;6929672;28;20038;-79
2021/05/24 07:08:10;;;;;;;8.60;1.60;;;;;;;;;;6926228;28;20055;-81
2021/05/24 07:11:31;;;;;;;2.15;1.38;;;;;;;;;;6925866;28;20113;-80
2021/05/24 07:14:53;;;;;;;1.38;1.27;;;;;;;;;;6935615;28;20040;-81
2021/05/24 07:18:14;;;;;;;18.08;1.40;;;;;;;;;;6943904;28;20103;-79
2021/05/24 07:21:34;;;;;;;1.77;1.20;;;;;;;;;;6943446;28;20170;-82
2021/05/24 07:24:56;;;;;;;2.25;1.40;;;;;;;;;;6934555;28;20034;-80
2021/05/24 07:28:16;;;;;;;1.33;1.30;;;;;;;;;;6939287;28;20040;-80
2021/05/24 07:31:37;;;;;;;4.78;1.40;;;;;;;;;;6937871;28;20125;-81
2021/05/24 07:34:57;;;;;;;1.95;1.20;;;;;;;;;;6938374;28;20037;-80
2021/05/24 07:38:18;;;;;;;6.38;1.48;;;;;;;;;;6941153;28;20061;-80
2021/05/24 07:41:38;;;;;;;1.33;1.00;;;;;;;;;;6940933;28;20044;-79
2021/05/24 07:44:58;;;;;;;4.45;1.38;;;;;;;;;;6941420;28;20045;-80
2021/05/24 07:48:19;;;;;;;1.52;1.38;;;;;;;;;;6940806;28;20455;-81
2021/05/24 07:51:39;;;;;;;7.53;1.40;;;;;;;;;;6924742;28;20022;-81
2021/05/24 07:55:01;;;;;;;25.48;1.23;;;;;;;;;;6943328;28;20036;-80
2021/05/24 07:58:22;;;;;;;12.32;1.42;;;;;;;;;;6947128;28;20041;-80
2021/05/24 08:01:42;;;;;;;10.10;0.80;;;;;;;;;;6942933;28;20033;-84
2021/05/24 08:05:03;;;;;;;1.27;0.85;;;;;;;;;;6939258;28;20037;-81
2021/05/24 08:08:23;;;;;;;10.82;1.15;;;;;;;;;;6948049;28;20025;-80
2021/05/24 08:11:44;;;;;;;11.02;1.20;;;;;;;;;;6951778;28;20053;-80
2021/05/24 08:15:18;;;;;;;3.70;0.80;;;;;;;;;;6939707;28;20041;-82
2021/05/24 08:18:39;;;;;;;3.10;1.02;;;;;;;;;;6949226;28;20112;-80
2021/05/24 08:21:59;;;;;;;5.60;1.10;;;;;;;;;;6939759;28;20094;-80
2021/05/24 08:25:20;;;;;;;5.70;1.55;;;;;;;;;;6937286;28;20034;-80
2021/05/24 08:28:41;;;;;;;9.75;1.13;;;;;;;;;;6929468;28;20037;-81
2021/05/24 08:32:01;;;;;;;10.40;1.30;;;;;;;;;;6955741;28;20046;-79
2021/05/24 08:35:22;;;;;;;3.45;1.10;;;;;;;;;;6932851;28;20038;-80
2021/05/24 08:38:42;;;;;;;5.25;1.20;;;;;;;;;;6947524;28;20111;-82
2021/05/24 08:42:03;;;;;;;1.85;1.00;;;;;;;;;;6937540;28;20407;-81
2021/05/24 08:45:27;;;;;;;1.73;0.95;;;;;;;;;;6930050;28;20472;-80
2021/05/24 08:48:48;;;;;;;4.40;1.10;;;;;;;;;;6944961;28;20064;-82
2021/05/24 08:52:08;;;;;;;4.60;1.17;;;;;;;;;;6933534;28;20030;-82
2021/05/24 08:55:29;;;;;;;2.55;1.08;;;;;;;;;;6933772;28;20442;-81
2021/05/24 08:58:49;;;;;;;1.73;0.90;;;;;;;;;;6936106;28;20030;-81
2021/05/24 09:02:10;;;;;;;2.45;0.90;;;;;;;;;;6935444;28;20125;-82
2021/05/24 09:05:32;;;;;;;2.13;1.05;;;;;;;;;;6929463;28;20034;-82
2021/05/24 09:08:58;;;;;;;5.00;1.00;;;;;;;;;;6931230;28;20370;-81
2021/05/24 09:12:21;;;;;;;4.25;1.35;;;;;;;;;;6929449;28;20045;-83
2021/05/24 09:15:44;;;;;;;4.82;1.33;;;;;;;;;;6939157;28;20040;-84
2021/05/24 09:19:13;;;;;;;8.35;1.10;;;;;;;;;;6949395;28;20037;-81
2021/05/24 09:22:34;;;;;;;2.33;1.02;;;;;;;;;;6943160;28;20045;-81
2021/05/24 09:26:05;;;;;;;5.47;1.10;;;;;;;;;;6925903;28;20126;-81
2021/05/24 09:29:27;;;;;;;4.45;1.30;;;;;;;;;;6938384;28;20033;-81
2021/05/24 09:32:47;;;;;;;10.38;1.40;;;;;;;;;;6938926;28;20456;-80
2021/05/24 09:36:08;;;;;;;6.28;1.30;;;;;;;;;;6945141;28;20060;-81
2021/05/24 09:39:31;;;;;;;3.05;1.00;;;;;;;;;;6948336;28;20033;-81
2021/05/24 09:42:53;;;;;;;2.60;1.30;;;;;;;;;;6948295;28;20124;-81
2021/05/24 09:46:21;;;;;;;1.95;1.10;;;;;;;;;;6920854;28;20033;-78
2021/05/24 09:49:45;;;;;;;7.20;1.58;;;;;;;;;;6920894;28;20068;-82
2021/05/24 09:53:05;;;;;;;4.35;1.00;;;;;;;;;;6946647;28;20057;-82
2021/05/24 09:56:27;;;;;;;4.03;1.45;;;;;;;;;;6948754;28;20099;-80
2021/05/24 09:59:48;;;;;;;3.85;1.45;;;;;;;;;;6947010;28;20029;-80
2021/05/24 10:03:10;;;;;;;4.85;1.60;;;;;;;;;;6946018;28;20080;-80
2021/05/24 10:06:31;;;;;;;11.30;1.35;;;;;;;;;;6926024;28;20029;-81
2021/05/24 10:09:51;;;;;;;5.68;1.25;;;;;;;;;;6922475;28;20060;-80
2021/05/24 10:13:12;;;;;;;8.13;1.65;;;;;;;;;;6923483;28;20041;-81
2021/05/24 10:16:36;;;;;;;4.45;1.20;;;;;;;;;;6926465;28;20061;-81
2021/05/24 10:19:56;;;;;;;5.13;1.30;;;;;;;;;;6933437;28;20036;-83
2021/05/24 10:23:17;;;;;;;3.03;1.35;;;;;;;;;;6926349;28;20034;-80
2021/05/24 10:26:39;;;;;;;4.93;1.27;;;;;;;;;;6930049;28;20033;-81
2021/05/24 10:30:02;;;;;;;2.72;1.10;;;;;;;;;;6928105;28;20543;-81
2021/05/24 10:33:27;;;;;;;5.80;1.00;;;;;;;;;;6931069;28;20036;-81
2021/05/24 10:37:21;;;;;;;3.13;1.25;;;;;;;;;;6934283;28;20076;-81
2021/05/24 10:40:45;;;;;;;4.68;1.10;;;;;;;;;;6943806;28;20034;-80
2021/05/24 10:44:09;;;;;;;3.08;1.40;;;;;;;;;;6943849;28;20033;-82
2021/05/24 10:47:30;;;;;;;6.50;1.27;;;;;;;;;;6937806;28;20066;-82
2021/05/24 10:51:06;;;;;;;11.27;1.83;;;;;;;;;;6925609;28;20037;-81
2021/05/24 10:54:35;;;;;;;3.65;1.60;;;;;;;;;;6942457;28;20030;-82
2021/05/24 10:58:00;;;;;;;2.92;1.00;;;;;;;;;;6941910;28;20374;-82
2021/05/24 11:01:20;;;;;;;5.65;1.15;;;;;;;;;;6941188;28;20033;-81
2021/05/24 11:05:08;;;;;;;3.60;1.40;;;;;;;;;;6940024;28;20064;-82
2021/05/24 11:08:29;;;;;;;1.90;1.02;;;;;;;;;;6941267;28;20049;-82
2021/05/24 11:11:50;;;;;;;2.33;1.38;;;;;;;;;;6943529;28;20029;-82
2021/05/24 11:15:12;;;;;;;2.70;1.20;;;;;;;;;;6949380;28;20026;-83
2021/05/24 11:18:39;;;;;;;2.17;0.93;;;;;;;;;;6941589;28;20079;-81
2021/05/24 11:22:32;;;;;;;2.25;1.25;;;;;;;;;;6921557;28;20116;-82
2021/05/24 11:26:13;;;;;;;2.33;1.25;;;;;;;;;;6937795;28;20480;-82
2021/05/24 11:29:34;;;;;;;1.88;1.15;;;;;;;;;;6941597;28;20082;-82
2021/05/24 11:32:54;;;;;;;3.95;1.25;;;;;;;;;;6943032;28;20045;-82
2021/05/24 11:36:39;;;;;;;4.32;1.38;;;;;;;;;;6946426;28;20033;-83
2021/05/24 11:40:13;;;;;;;3.55;1.33;;;;;;;;;;6944674;28;20045;-83
2021/05/24 11:43:34;;;;;;;16.00;1.25;;;;;;;;;;6947599;28;20052;-81
2021/05/24 11:46:56;;;;;;;3.58;1.40;;;;;;;;;;6947888;28;20057;-81
2021/05/24 11:50:17;;;;;;;6.63;1.40;;;;;;;;;;6932996;28;20108;-81
2021/05/24 11:53:37;;;;;;;10.23;2.40;;;;;;;;;;6948258;28;20033;-81
2021/05/24 11:57:06;;;;;;;5.25;1.35;;;;;;;;;;6946423;28;20157;-82
2021/05/24 12:00:26;;;;;;;3.83;1.27;;;;;;;;;;6944969;28;20025;-82
2021/05/24 12:03:47;;;;;;;4.53;1.15;;;;;;;;;;6944276;28;20109;-82
2021/05/24 12:07:08;;;;;;;3.85;1.30;;;;;;;;;;6947971;28;20087;-81
2021/05/24 12:10:29;;;;;;;3.40;1.38;;;;;;;;;;6947548;28;20037;-81
2021/05/24 12:14:00;;;;;;;6.55;1.30;;;;;;;;;;6945932;28;20108;-81
2021/05/24 12:17:26;;;;;;;2.25;1.15;;;;;;;;;;6949373;28;20375;-81
2021/05/24 12:20:46;;;;;;;4.32;1.30;;;;;;;;;;6948411;28;20033;-81
2021/05/24 12:24:08;;;;;;;10.77;1.73;;;;;;;;;;6948428;28;20087;-81
2021/05/24 12:27:29;;;;;;;5.43;1.33;;;;;;;;;;6948686;28;20049;-81
2021/05/24 12:30:52;;;;;;;3.95;1.20;;;;;;;;;;6955225;23;20058;-82
2021/05/24 12:34:14;;;;;;;1.75;1.30;;;;;;;;;;6917505;28;20384;-82
2021/05/24 12:37:36;;;;;;;4.78;1.30;;;;;;;;;;6919060;28;20029;-84
2021/05/24 12:40:59;;;;;;;4.68;1.15;;;;;;;;;;6904005;28;20087;-83
2021/05/24 12:44:24;;;;;;;2.58;1.00;;;;;;;;;;6905940;28;20049;-83
2021/05/24 12:47:44;;;;;;;1.92;1.40;;;;;;;;;;6908515;28;20117;-84
2021/05/24 12:51:13;;;;;;;3.65;1.30;;;;;;;;;;6919481;28;20192;-84
2021/05/24 12:54:48;;;;;;;5.15;1.58;;;;;;;;;;6920237;28;20022;-84
2021/05/24 12:58:11;;;;;;;2.63;1.15;;;;;;;;;;6918260;28;20034;-80
2021/05/24 13:01:32;;;;;;;6.65;1.25;;;;;;;;;;6917683;28;20083;-80
2021/05/24 13:04:53;;;;;;;2.50;1.13;;;;;;;;;;6917154;28;20030;-81
2021/05/24 13:08:17;;;;;;;4.78;1.30;;;;;;;;;;6917765;28;20036;-81
2021/05/24 13:11:49;;;;;;;3.45;1.23;;;;;;;;;;6917369;28;20060;-83
2021/05/24 13:15:12;;;;;;;5.85;1.65;;;;;;;;;;6918436;28;20049;-84
2021/05/24 13:18:46;;;;;;;8.38;1.98;;;;;;;;;;6909862;28;20507;-84
2021/05/24 13:32:49;;;;;;;8.50;1.42;;;;;;;;;;6912922;28;20123;-84
2021/05/24 13:36:13;;;;;;;10.95;1.63;;;;;;;;;;6918004;28;20354;-83
2021/05/24 13:39:33;;;;;;;4.80;1.92;;;;;;;;;;6907910;28;20376;-85
2021/05/24 13:42:54;;;;;;;3.85;1.23;;;;;;;;;;6900665;28;20037;-84
2021/05/24 13:46:16;;;;;;;4.68;1.65;;;;;;;;;;6908054;28;20031;-84
2021/05/24 13:49:37;;;;;;;4.47;1.48;;;;;;;;;;6915651;28;20439;-85
2021/05/24 13:52:58;;;;;;;4.68;1.40;;;;;;;;;;6917009;28;20522;-85
2021/05/24 13:56:24;;;;;;;2.47;1.27;;;;;;;;;;6916030;28;20116;-84
2021/05/24 13:59:48;;;;;;;6.07;1.63;;;;;;;;;;6905635;28;20026;-84
2021/05/24 14:03:10;;;;;;;2.78;1.23;;;;;;;;;;6907999;28;20049;-85
2021/05/24 14:06:35;;;;;;;5.45;1.17;;;;;;;;;;6916510;28;20030;-86
2021/05/24 14:09:56;;;;;;;3.25;1.17;;;;;;;;;;6917089;28;20061;-86
2021/05/24 14:13:19;;;;;;;8.63;1.27;;;;;;;;;;6918093;28;20025;-83
2021/05/24 14:16:40;;;;;;;8.70;1.35;;;;;;;;;;6902253;28;20088;-83
2021/05/24 14:20:01;;;;;;;4.47;1.30;;;;;;;;;;6899901;28;20034;-83
2021/05/24 14:23:21;;;;;;;2.65;1.42;;;;;;;;;;6914590;28;20093;-84
2021/05/24 14:26:42;;;;;;;3.08;1.15;;;;;;;;;;6916097;28;20029;-83
2021/05/24 14:30:05;;;;;;;5.00;1.30;;;;;;;;;;6914034;28;20532;-83
2021/05/24 14:33:26;;;;;;;3.50;1.20;;;;;;;;;;6898271;28;20034;-84
2021/05/24 14:36:48;;;;;;;1.92;1.10;;;;;;;;;;6898944;28;20026;-85
2021/05/24 14:40:09;;;;;;;3.10;1.58;;;;;;;;;;6913276;28;20092;-84
2021/05/24 14:43:29;;;;;;;4.53;1.20;;;;;;;;;;6904226;28;20468;-83
2021/05/24 14:46:50;;;;;;;2.35;1.10;;;;;;;;;;6913347;28;20022;-84
2021/05/24 14:50:19;;;;;;;3.85;1.30;;;;;;;;;;6912069;28;20030;-84
2021/05/24 14:53:39;;;;;;;4.22;1.30;;;;;;;;;;6891797;28;20371;-85
2021/05/24 14:57:00;;;;;;;7.72;1.30;;;;;;;;;;6915862;28;20706;-82
2021/05/24 15:00:20;;;;;;;2.08;1.27;;;;;;;;;;6906618;28;20076;-82
2021/05/24 15:03:41;;;;;;;2.42;1.17;;;;;;;;;;6905567;28;20054;-83
2021/05/24 15:07:01;;;;;;;3.30;1.30;;;;;;;;;;6917613;28;20073;-82
2021/05/24 15:10:22;;;;;;;5.90;1.25;;;;;;;;;;6904302;28;20041;-83
2021/05/24 15:13:42;;;;;;;5.75;1.17;;;;;;;;;;6913003;28;20117;-84
2021/05/24 15:17:03;;;;;;;1.02;0.93;;;;;;;;;;6917423;28;20080;-83
2021/05/24 15:20:25;;;;;;;1.75;1.02;;;;;;;;;;6912129;28;20042;-82
2021/05/24 15:23:45;;;;;;;2.42;1.23;;;;;;;;;;6896900;28;20038;-82
2021/05/24 15:27:06;;;;;;;1.92;1.02;;;;;;;;;;6915759;28;20061;-82
2021/05/24 15:30:26;;;;;;;1.10;0.90;;;;;;;;;;6915239;28;20046;-83
2021/05/24 15:33:47;;;;;;;1.55;1.10;;;;;;;;;;6916224;28;20172;-82
2021/05/24 15:37:08;;;;;;;1.50;1.13;;;;;;;;;;6890423;28;20132;-83
2021/05/24 15:40:28;;;;;;;3.40;1.30;;;;;;;;;;6911901;28;20033;-83
2021/05/24 15:43:50;;;;;;;1.20;1.00;;;;;;;;;;6915712;28;20022;-84
2021/05/24 15:47:13;;;;;;;1.33;1.10;;;;;;;;;;6908827;28;20046;-82
2021/05/24 15:50:33;;;;;;;3.65;1.42;;;;;;;;;;6914069;28;20403;-82
2021/05/24 15:53:54;;;;;;;5.05;1.10;;;;;;;;;;6893183;28;20539;-83
2021/05/24 15:57:14;;;;;;;5.25;1.05;;;;;;;;;;6900953;28;20057;-83
2021/05/24 16:00:35;;;;;;;1.55;1.00;;;;;;;;;;6915366;28;20043;-82
2021/05/24 16:03:59;;;;;;;2.03;1.05;;;;;;;;;;6910165;28;20113;-81
2021/05/24 16:07:19;;;;;;;5.38;1.10;;;;;;;;;;6915391;28;20026;-81
2021/05/24 16:10:40;;;;;;;2.92;1.27;;;;;;;;;;6915615;28;20037;-82
2021/05/24 16:14:00;;;;;;;5.25;1.02;;;;;;;;;;6907255;28;20042;-81
2021/05/24 16:17:22;;;;;;;3.55;1.23;;;;;;;;;;6895798;28;20065;-82
2021/05/24 16:20:45;;;;;;;2.92;1.33;;;;;;;;;;6902009;28;20510;-82
2021/05/24 16:24:11;;;;;;;5.07;1.40;;;;;;;;;;6917475;28;20038;-85
2021/05/24 16:27:32;;;;;;;2.60;1.00;;;;;;;;;;6910590;28;20423;-82
2021/05/24 16:30:53;;;;;;;5.10;1.25;;;;;;;;;;6903080;28;20535;-82
2021/05/24 16:34:13;;;;;;;3.83;1.23;;;;;;;;;;6902324;28;20026;-82
2021/05/24 16:37:35;;;;;;;1.48;1.00;;;;;;;;;;6901096;28;20536;-83
2021/05/24 16:40:56;;;;;;;2.50;1.15;;;;;;;;;;6902572;28;20113;-84
2021/05/24 16:44:16;;;;;;;1.00;1.00;;;;;;;;;;6900561;28;20038;-84
2021/05/24 16:47:37;;;;;;;2.28;1.23;;;;;;;;;;6905462;28;20084;-84
2021/05/24 16:50:58;;;;;;;2.70;1.38;;;;;;;;;;6900347;28;20460;-83
2021/05/24 16:54:18;;;;;;;3.85;1.38;;;;;;;;;;6901044;28;20742;-87
2021/05/24 16:57:39;;;;;;;4.05;1.05;;;;;;;;;;6901624;28;20121;-83
2021/05/24 17:00:59;;;;;;;1.55;1.00;;;;;;;;;;6904394;28;20034;-85
2021/05/24 17:04:20;;;;;;;1.13;0.90;;;;;;;;;;6910099;28;20026;-85
2021/05/24 17:07:41;;;;;;;1.85;1.25;;;;;;;;;;6905522;28;20093;-83
2021/05/24 17:11:03;;;;;;;2.42;0.90;;;;;;;;;;6909307;28;20038;-81
2021/05/24 17:14:24;;;;;;;1.80;1.38;;;;;;;;;;6897473;28;20050;-84
2021/05/24 17:17:45;;;;;;;2.78;1.17;;;;;;;;;;6902883;28;20022;-81
2021/05/24 17:21:07;;;;;;;3.78;1.20;;;;;;;;;;6898361;28;20061;-82
2021/05/24 17:24:27;;;;;;;1.15;1.02;;;;;;;;;;6899344;28;20041;-82
2021/05/24 17:27:49;;;;;;;1.88;1.20;;;;;;;;;;6898815;28;20062;-83
2021/05/24 17:31:10;;;;;;;1.20;1.00;;;;;;;;;;6904369;28;20050;-83
2021/05/24 17:34:31;;;;;;;2.72;1.20;;;;;;;;;;6918109;28;20115;-81
2021/05/24 17:37:53;;;;;;;2.63;1.38;;;;;;;;;;6917455;28;20029;-82
2021/05/24 17:41:14;;;;;;;3.15;1.23;;;;;;;;;;6912734;28;20025;-81
2021/05/24 17:44:34;;;;;;;3.33;1.73;;;;;;;;;;6906684;28;20069;-81
2021/05/24 17:47:56;;;;;;;2.25;1.88;;;;;;;;;;6912986;28;20053;-82
2021/05/24 17:51:23;;;;;;;9.65;2.40;;;;;;;;;;6911340;28;20042;-83
2021/05/24 17:54:44;;;;;;;5.03;2.45;;;;;;;;;;6917771;28;20041;-82
2021/05/24 17:58:06;;;;;;;5.70;2.83;;;;;;;;;;6916260;28;20029;-83
2021/05/24 18:01:26;;;;;;;4.95;3.05;;;;;;;;;;6918189;28;20029;-82
2021/05/24 18:04:47;;;;;;;3.35;2.55;;;;;;;;;;6918392;28;20099;-83
2021/05/24 18:08:08;;;;;;;5.30;3.90;;;;;;;;;;6911232;28;20025;-83
2021/05/24 18:11:28;;;;;;;8.18;5.03;;;;;;;;;;6910939;28;20046;-81
2021/05/24 18:14:48;;;;;;;9.23;5.55;;;;;;;;;;6906884;28;20498;-81
2021/05/24 18:18:15;;;;;;;15.85;6.30;;;;;;;;;;6916716;28;20472;-83
2021/05/24 18:21:36;;;;;;;12.30;6.90;;;;;;;;;;6921344;28;20038;-81
2021/05/24 18:24:56;;;;;;;11.00;7.20;;;;;;;;;;6918175;28;20111;-82
2021/05/24 18:28:17;;;;;;;20.02;7.55;;;;;;;;;;6923768;28;20081;-83
2021/05/24 18:31:40;;;;;;;26.52;9.15;;;;;;;;;;6910264;28;20066;-82
2021/05/24 18:35:01;;;;;;;29.92;8.88;;;;;;;;;;6913218;28;20490;-82
2021/05/24 18:38:29;;;;;;;26.38;9.18;;;;;;;;;;6912368;28;20041;-82
2021/05/24 18:41:50;;;;;;;27.93;7.93;;;;;;;;;;6907167;28;20040;-83
2021/05/24 18:45:11;;;;;;;21.42;7.80;;;;;;;;;;6915350;28;20448;-82
2021/05/24 18:48:32;;;;;;;18.83;7.40;;;;;;;;;;6917024;28;20030;-82
2021/05/24 18:51:52;;;;;;;20.60;7.35;;;;;;;;;;6916642;28;20025;-82
2021/05/24 18:55:14;;;;;;;19.92;6.82;;;;;;;;;;6916327;28;20026;-82
2021/05/24 18:58:35;;;;;;;22.58;7.13;;;;;;;;;;6903567;28;20078;-81
2021/05/24 19:01:56;;;;;;;15.15;6.07;;;;;;;;;;6910028;28;20042;-81
2021/05/24 19:08:56;;;;;;;25.15;6.57;;;;;;;;;;6902730;28;20117;-82
2021/05/24 19:12:16;;;;;;;17.60;6.03;;;;;;;;;;6902636;28;20353;-82
2021/05/24 19:15:38;;;;;;;14.32;5.78;;;;;;;;;;6912227;28;20034;-82
2021/05/24 19:18:58;;;;;;;12.75;4.90;;;;;;;;;;6903334;28;20030;-81
2021/05/24 19:22:19;;;;;;;13.35;4.97;;;;;;;;;;6916874;28;20120;-81
2021/05/24 19:25:43;;;;;;;17.65;4.70;;;;;;;;;;6913329;28;20372;-81
2021/05/24 19:29:09;;;;;;;8.60;4.28;;;;;;;;;;6904449;28;20061;-81
2021/05/24 19:32:29;;;;;;;16.00;4.15;;;;;;;;;;6916130;28;20057;-81
2021/05/24 19:35:50;;;;;;;9.40;4.05;;;;;;;;;;6907593;28;20376;-81
2021/05/24 19:39:10;;;;;;;9.30;4.20;;;;;;;;;;6895479;28;20073;-81
2021/05/24 19:42:31;;;;;;;17.00;4.65;;;;;;;;;;6901387;28;20516;-81
2021/05/24 19:45:51;;;;;;;12.60;3.97;;;;;;;;;;6915223;28;20036;-81
2021/05/24 19:51:29;;;;;;;12.93;3.45;;;;;;;;;;6915980;28;20125;-81
2021/05/24 20:25:27;;;;;;;13.13;3.30;;;;;;;;;;6918879;28;20038;-82
2021/05/24 20:28:50;;;;;;;10.00;2.60;;;;;;;;;;6920828;28;20041;-81
2021/05/24 20:32:11;;;;;;;6.50;2.70;;;;;;;;;;6920019;28;20049;-81
2021/05/24 20:35:31;;;;;;;8.20;2.95;;;;;;;;;;6919248;28;20443;-81
2021/05/24 20:38:52;;;;;;;6.05;2.28;;;;;;;;;;6919686;28;20026;-81
2021/05/24 20:42:12;;;;;;;8.60;2.50;;;;;;;;;;6920710;28;20353;-81
2021/05/24 20:45:32;;;;;;;10.57;2.95;;;;;;;;;;6919377;28;20040;-83
2021/05/24 20:48:53;;;;;;;6.45;2.60;;;;;;;;;;6909179;28;20056;-81
2021/05/24 20:52:14;;;;;;;6.20;2.15;;;;;;;;;;6913746;28;20822;-81
2021/05/24 20:55:34;;;;;;;7.75;1.98;;;;;;;;;;6917504;28;20026;-79